San Angelo's Hourly Summary for Saturday, March 18, 2017
Hour Temp
(f)
RH
(%)
Solar Rad.
(MJ/m2)
Rainfall
(in)
Wind
(mph)
3/18/2017 12:00 AM 70 57 0 0 5.37
3/18/2017 1:00 AM 68 61 0 0 5.01
3/18/2017 2:00 AM 65 70 0 0 2.62
3/18/2017 3:00 AM 65 75 0 0 3.63
3/18/2017 4:00 AM 63 79 0 0 1.93
3/18/2017 5:00 AM 61 81 0 0 2.6
3/18/2017 6:00 AM 62 82 0 0 1.04
3/18/2017 7:00 AM 63 84 0 0 1.7
3/18/2017 8:00 AM 64 86 0 0 1.27
3/18/2017 9:00 AM 65 81 0.15 0 3.21
3/18/2017 10:00 AM 67 77 0.47 0 5.18
3/18/2017 11:00 AM 69 67 1.44 0 5.02
3/18/2017 12:00 PM 72 57 2.46 0 4.26
3/18/2017 1:00 PM 76 51 2.83 0 4.73
3/18/2017 2:00 PM 79 43 3.02 0 6.59
3/18/2017 3:00 PM 82 35 2.95 0 7.2
3/18/2017 4:00 PM 84 33 2.64 0 7.73
3/18/2017 5:00 PM 85 31 2.13 0 7.57
3/18/2017 6:00 PM 85 31 1.46 0 7.72
3/18/2017 7:00 PM 84 32 0.74 0 7.33
3/18/2017 8:00 PM 82 33 0.13 0 6.25
3/18/2017 9:00 PM 79 36 0 0 5.99
3/18/2017 10:00 PM 75 42 0 0 8.89
3/18/2017 11:00 PM 72 53 0 0 8.78
Data Summary 72 57 20.42 0.00 5.07